sensor_id;sensor_type;location;lat;lon;timestamp;P1;durP1;ratioP1;P2;durP2;ratioP2
56039;SDS011;43937;41.366;2.072;2023-09-19T00:00:41;4.18;;;1.35;;
56039;SDS011;43937;41.366;2.072;2023-09-19T00:03:08;3.00;;;1.20;;
56039;SDS011;43937;41.366;2.072;2023-09-19T00:05:35;4.45;;;1.70;;
56039;SDS011;43937;41.366;2.072;2023-09-19T00:08:02;2.80;;;1.23;;
56039;SDS011;43937;41.366;2.072;2023-09-19T00:10:29;2.78;;;1.23;;
56039;SDS011;43937;41.366;2.072;2023-09-19T00:13:00;3.35;;;1.30;;
56039;SDS011;43937;41.366;2.072;2023-09-19T00:15:30;5.35;;;1.40;;
56039;SDS011;43937;41.366;2.072;2023-09-19T00:18:00;4.32;;;1.20;;
56039;SDS011;43937;41.366;2.072;2023-09-19T00:20:26;5.30;;;1.30;;
56039;SDS011;43937;41.366;2.072;2023-09-19T00:22:51;4.07;;;1.30;;
56039;SDS011;43937;41.366;2.072;2023-09-19T00:25:19;5.47;;;1.45;;
56039;SDS011;43937;41.366;2.072;2023-09-19T00:27:45;3.05;;;1.30;;
56039;SDS011;43937;41.366;2.072;2023-09-19T00:30:29;3.47;;;1.48;;
56039;SDS011;43937;41.366;2.072;2023-09-19T00:32:55;3.50;;;1.50;;
56039;SDS011;43937;41.366;2.072;2023-09-19T00:35:21;3.22;;;1.15;;
56039;SDS011;43937;41.366;2.072;2023-09-19T00:37:50;2.92;;;1.08;;
56039;SDS011;43937;41.366;2.072;2023-09-19T00:40:17;2.75;;;1.45;;
56039;SDS011;43937;41.366;2.072;2023-09-19T00:42:43;7.65;;;1.98;;
56039;SDS011;43937;41.366;2.072;2023-09-19T00:45:11;3.67;;;1.50;;
56039;SDS011;43937;41.366;2.072;2023-09-19T00:47:47;4.90;;;2.00;;
56039;SDS011;43937;41.366;2.072;2023-09-19T00:50:15;9.30;;;2.10;;
56039;SDS011;43937;41.366;2.072;2023-09-19T00:52:42;6.93;;;1.77;;
56039;SDS011;43937;41.366;2.072;2023-09-19T00:56:22;4.70;;;1.95;;
56039;SDS011;43937;41.366;2.072;2023-09-19T00:58:48;3.00;;;1.50;;
56039;SDS011;43937;41.366;2.072;2023-09-19T01:01:56;8.43;;;1.95;;
56039;SDS011;43937;41.366;2.072;2023-09-19T01:04:22;5.45;;;1.77;;
56039;SDS011;43937;41.366;2.072;2023-09-19T01:06:48;5.43;;;1.95;;
56039;SDS011;43937;41.366;2.072;2023-09-19T01:09:18;3.58;;;1.70;;
56039;SDS011;43937;41.366;2.072;2023-09-19T01:11:45;7.03;;;1.80;;
56039;SDS011;43937;41.366;2.072;2023-09-19T01:17:24;5.03;;;1.48;;
56039;SDS011;43937;41.366;2.072;2023-09-19T01:30:40;7.85;;;2.00;;
56039;SDS011;43937;41.366;2.072;2023-09-19T01:33:08;7.53;;;2.30;;
56039;SDS011;43937;41.366;2.072;2023-09-19T01:35:37;6.57;;;2.53;;
56039;SDS011;43937;41.366;2.072;2023-09-19T01:38:04;6.50;;;2.58;;
56039;SDS011;43937;41.366;2.072;2023-09-19T01:40:32;8.00;;;1.90;;
56039;SDS011;43937;41.366;2.072;2023-09-19T01:43:11;6.95;;;2.30;;
56039;SDS011;43937;41.366;2.072;2023-09-19T01:45:50;7.53;;;2.45;;
56039;SDS011;43937;41.366;2.072;2023-09-19T01:51:21;4.70;;;2.00;;
56039;SDS011;43937;41.366;2.072;2023-09-19T01:54:37;5.20;;;1.70;;
56039;SDS011;43937;41.366;2.072;2023-09-19T01:59:41;5.60;;;1.75;;
56039;SDS011;43937;41.366;2.072;2023-09-19T02:02:13;4.95;;;1.70;;
56039;SDS011;43937;41.366;2.072;2023-09-19T02:06:32;6.60;;;2.03;;
56039;SDS011;43937;41.366;2.072;2023-09-19T02:08:59;3.17;;;1.50;;
56039;SDS011;43937;41.366;2.072;2023-09-19T02:11:24;4.60;;;1.95;;
56039;SDS011;43937;41.366;2.072;2023-09-19T02:13:50;8.52;;;1.98;;
56039;SDS011;43937;41.366;2.072;2023-09-19T02:16:19;9.60;;;2.35;;
56039;SDS011;43937;41.366;2.072;2023-09-19T02:18:46;7.78;;;2.28;;
56039;SDS011;43937;41.366;2.072;2023-09-19T02:21:14;5.55;;;1.88;;
56039;SDS011;43937;41.366;2.072;2023-09-19T02:23:40;3.10;;;1.90;;
56039;SDS011;43937;41.366;2.072;2023-09-19T02:26:06;7.57;;;2.15;;
56039;SDS011;43937;41.366;2.072;2023-09-19T02:28:31;7.00;;;2.30;;
56039;SDS011;43937;41.366;2.072;2023-09-19T02:30:57;7.43;;;1.80;;
56039;SDS011;43937;41.366;2.072;2023-09-19T02:33:23;5.60;;;2.15;;
56039;SDS011;43937;41.366;2.072;2023-09-19T02:35:49;5.75;;;2.17;;
56039;SDS011;43937;41.366;2.072;2023-09-19T02:38:15;4.63;;;1.85;;
56039;SDS011;43937;41.366;2.072;2023-09-19T02:40:43;6.50;;;2.45;;
56039;SDS011;43937;41.366;2.072;2023-09-19T02:43:09;5.03;;;1.90;;
56039;SDS011;43937;41.366;2.072;2023-09-19T02:45:34;4.15;;;1.95;;
56039;SDS011;43937;41.366;2.072;2023-09-19T02:48:00;4.80;;;1.60;;
56039;SDS011;43937;41.366;2.072;2023-09-19T02:50:28;5.05;;;1.70;;
56039;SDS011;43937;41.366;2.072;2023-09-19T02:52:53;2.92;;;1.77;;
56039;SDS011;43937;41.366;2.072;2023-09-19T02:55:19;6.65;;;1.55;;
56039;SDS011;43937;41.366;2.072;2023-09-19T02:57:50;4.97;;;1.60;;
56039;SDS011;43937;41.366;2.072;2023-09-19T03:00:17;4.55;;;1.70;;
56039;SDS011;43937;41.366;2.072;2023-09-19T03:02:53;4.15;;;1.80;;
56039;SDS011;43937;41.366;2.072;2023-09-19T03:05:19;5.40;;;1.20;;
56039;SDS011;43937;41.366;2.072;2023-09-19T03:07:46;5.15;;;1.27;;
56039;SDS011;43937;41.366;2.072;2023-09-19T03:10:15;2.80;;;1.52;;
56039;SDS011;43937;41.366;2.072;2023-09-19T03:12:41;3.55;;;1.80;;
56039;SDS011;43937;41.366;2.072;2023-09-19T03:15:07;7.93;;;1.75;;
56039;SDS011;43937;41.366;2.072;2023-09-19T03:17:33;5.65;;;1.65;;
56039;SDS011;43937;41.366;2.072;2023-09-19T03:20:00;9.40;;;2.03;;
56039;SDS011;43937;41.366;2.072;2023-09-19T03:22:26;8.10;;;2.15;;
56039;SDS011;43937;41.366;2.072;2023-09-19T03:24:52;3.30;;;1.90;;
56039;SDS011;43937;41.366;2.072;2023-09-19T03:27:18;9.30;;;2.00;;
56039;SDS011;43937;41.366;2.072;2023-09-19T03:29:44;6.38;;;1.80;;
56039;SDS011;43937;41.366;2.072;2023-09-19T03:32:09;5.65;;;2.20;;
56039;SDS011;43937;41.366;2.072;2023-09-19T03:34:38;7.47;;;2.50;;
56039;SDS011;43937;41.366;2.072;2023-09-19T03:37:08;5.78;;;2.35;;
56039;SDS011;43937;41.366;2.072;2023-09-19T03:39:35;12.88;;;2.63;;
56039;SDS011;43937;41.366;2.072;2023-09-19T03:42:01;6.38;;;2.70;;
56039;SDS011;43937;41.366;2.072;2023-09-19T03:44:27;17.95;;;3.05;;
56039;SDS011;43937;41.366;2.072;2023-09-19T03:46:53;8.15;;;2.50;;
56039;SDS011;43937;41.366;2.072;2023-09-19T03:49:20;7.45;;;2.67;;
56039;SDS011;43937;41.366;2.072;2023-09-19T03:51:46;8.77;;;2.75;;
56039;SDS011;43937;41.366;2.072;2023-09-19T03:54:11;5.28;;;2.28;;
56039;SDS011;43937;41.366;2.072;2023-09-19T03:56:37;6.38;;;2.67;;
56039;SDS011;43937;41.366;2.072;2023-09-19T03:59:03;8.50;;;2.97;;
56039;SDS011;43937;41.366;2.072;2023-09-19T04:01:28;12.25;;;2.90;;
56039;SDS011;43937;41.366;2.072;2023-09-19T04:03:57;10.00;;;2.75;;
56039;SDS011;43937;41.366;2.072;2023-09-19T04:06:22;8.07;;;3.17;;
56039;SDS011;43937;41.366;2.072;2023-09-19T04:08:48;8.65;;;2.63;;
56039;SDS011;43937;41.366;2.072;2023-09-19T04:11:14;7.82;;;2.92;;
56039;SDS011;43937;41.366;2.072;2023-09-19T04:13:39;8.38;;;3.28;;
56039;SDS011;43937;41.366;2.072;2023-09-19T04:16:05;7.47;;;2.92;;
56039;SDS011;43937;41.366;2.072;2023-09-19T04:18:32;12.30;;;3.08;;
56039;SDS011;43937;41.366;2.072;2023-09-19T04:20:58;9.32;;;3.30;;
56039;SDS011;43937;41.366;2.072;2023-09-19T04:23:27;13.68;;;3.80;;
56039;SDS011;43937;41.366;2.072;2023-09-19T04:25:53;12.32;;;3.80;;
56039;SDS011;43937;41.366;2.072;2023-09-19T04:28:19;19.75;;;3.72;;
56039;SDS011;43937;41.366;2.072;2023-09-19T04:30:44;9.57;;;3.75;;
56039;SDS011;43937;41.366;2.072;2023-09-19T04:33:10;10.65;;;3.58;;
56039;SDS011;43937;41.366;2.072;2023-09-19T04:35:36;14.10;;;3.50;;
56039;SDS011;43937;41.366;2.072;2023-09-19T04:38:04;11.98;;;3.75;;
56039;SDS011;43937;41.366;2.072;2023-09-19T04:41:43;11.38;;;3.40;;
56039;SDS011;43937;41.366;2.072;2023-09-19T04:44:11;8.18;;;3.80;;
56039;SDS011;43937;41.366;2.072;2023-09-19T04:46:36;10.77;;;3.63;;
56039;SDS011;43937;41.366;2.072;2023-09-19T04:49:02;8.68;;;3.90;;
56039;SDS011;43937;41.366;2.072;2023-09-19T04:51:27;9.93;;;3.17;;
56039;SDS011;43937;41.366;2.072;2023-09-19T04:55:14;11.80;;;3.80;;
56039;SDS011;43937;41.366;2.072;2023-09-19T04:57:44;7.03;;;3.55;;
56039;SDS011;43937;41.366;2.072;2023-09-19T05:00:14;10.75;;;3.60;;
56039;SDS011;43937;41.366;2.072;2023-09-19T05:02:42;10.20;;;3.53;;
56039;SDS011;43937;41.366;2.072;2023-09-19T05:05:09;8.55;;;3.20;;
56039;SDS011;43937;41.366;2.072;2023-09-19T05:07:40;8.15;;;3.25;;
56039;SDS011;43937;41.366;2.072;2023-09-19T05:10:06;10.30;;;3.55;;
56039;SDS011;43937;41.366;2.072;2023-09-19T05:12:35;8.77;;;3.70;;
56039;SDS011;43937;41.366;2.072;2023-09-19T05:15:04;9.88;;;3.40;;
56039;SDS011;43937;41.366;2.072;2023-09-19T05:17:32;11.23;;;3.30;;
56039;SDS011;43937;41.366;2.072;2023-09-19T05:19:58;11.52;;;3.00;;
56039;SDS011;43937;41.366;2.072;2023-09-19T05:22:23;6.63;;;2.50;;
56039;SDS011;43937;41.366;2.072;2023-09-19T05:24:51;8.98;;;2.60;;
56039;SDS011;43937;41.366;2.072;2023-09-19T05:27:17;9.63;;;2.72;;
56039;SDS011;43937;41.366;2.072;2023-09-19T05:29:43;5.05;;;2.50;;
56039;SDS011;43937;41.366;2.072;2023-09-19T05:32:09;9.43;;;2.35;;
56039;SDS011;43937;41.366;2.072;2023-09-19T05:34:35;5.43;;;2.22;;
56039;SDS011;43937;41.366;2.072;2023-09-19T05:37:01;7.70;;;2.42;;
56039;SDS011;43937;41.366;2.072;2023-09-19T05:39:27;5.70;;;2.42;;
56039;SDS011;43937;41.366;2.072;2023-09-19T05:41:52;5.10;;;2.42;;
56039;SDS011;43937;41.366;2.072;2023-09-19T05:44:18;4.97;;;2.35;;
56039;SDS011;43937;41.366;2.072;2023-09-19T05:46:43;15.38;;;2.75;;
56039;SDS011;43937;41.366;2.072;2023-09-19T05:49:10;11.18;;;2.72;;
56039;SDS011;43937;41.366;2.072;2023-09-19T05:51:36;10.93;;;2.47;;
56039;SDS011;43937;41.366;2.072;2023-09-19T05:54:01;5.90;;;2.53;;
56039;SDS011;43937;41.366;2.072;2023-09-19T05:56:27;8.70;;;2.67;;
56039;SDS011;43937;41.366;2.072;2023-09-19T05:58:52;9.15;;;2.67;;
56039;SDS011;43937;41.366;2.072;2023-09-19T06:01:18;9.95;;;2.90;;
56039;SDS011;43937;41.366;2.072;2023-09-19T06:03:44;8.48;;;3.10;;
56039;SDS011;43937;41.366;2.072;2023-09-19T06:06:09;8.57;;;2.92;;
56039;SDS011;43937;41.366;2.072;2023-09-19T06:08:35;9.60;;;2.78;;
56039;SDS011;43937;41.366;2.072;2023-09-19T06:11:00;11.60;;;2.95;;
56039;SDS011;43937;41.366;2.072;2023-09-19T06:13:29;12.05;;;3.35;;
56039;SDS011;43937;41.366;2.072;2023-09-19T06:15:55;5.05;;;2.88;;
56039;SDS011;43937;41.366;2.072;2023-09-19T06:18:23;10.48;;;3.10;;
56039;SDS011;43937;41.366;2.072;2023-09-19T06:20:51;9.18;;;2.75;;
56039;SDS011;43937;41.366;2.072;2023-09-19T06:23:17;7.57;;;3.33;;
56039;SDS011;43937;41.366;2.072;2023-09-19T06:25:45;9.98;;;3.28;;
56039;SDS011;43937;41.366;2.072;2023-09-19T06:28:10;8.63;;;2.63;;
56039;SDS011;43937;41.366;2.072;2023-09-19T06:30:37;13.80;;;3.25;;
56039;SDS011;43937;41.366;2.072;2023-09-19T06:33:05;8.38;;;2.83;;
56039;SDS011;43937;41.366;2.072;2023-09-19T06:35:32;10.65;;;3.58;;
56039;SDS011;43937;41.366;2.072;2023-09-19T06:37:58;7.18;;;3.35;;
56039;SDS011;43937;41.366;2.072;2023-09-19T06:40:24;6.97;;;3.30;;
56039;SDS011;43937;41.366;2.072;2023-09-19T06:42:52;9.90;;;2.90;;
56039;SDS011;43937;41.366;2.072;2023-09-19T06:45:19;17.58;;;3.28;;
56039;SDS011;43937;41.366;2.072;2023-09-19T06:47:46;8.57;;;3.88;;
56039;SDS011;43937;41.366;2.072;2023-09-19T06:50:20;8.40;;;4.65;;
56039;SDS011;43937;41.366;2.072;2023-09-19T06:52:48;12.43;;;4.40;;
56039;SDS011;43937;41.366;2.072;2023-09-19T06:55:15;13.68;;;4.85;;
56039;SDS011;43937;41.366;2.072;2023-09-19T06:57:43;15.10;;;4.82;;
56039;SDS011;43937;41.366;2.072;2023-09-19T07:00:09;15.70;;;4.10;;
56039;SDS011;43937;41.366;2.072;2023-09-19T07:02:43;14.25;;;4.38;;
56039;SDS011;43937;41.366;2.072;2023-09-19T07:05:08;12.38;;;4.32;;
56039;SDS011;43937;41.366;2.072;2023-09-19T07:07:34;13.13;;;3.80;;
56039;SDS011;43937;41.366;2.072;2023-09-19T07:10:00;14.85;;;3.90;;
56039;SDS011;43937;41.366;2.072;2023-09-19T07:12:26;12.32;;;4.13;;
56039;SDS011;43937;41.366;2.072;2023-09-19T07:14:52;9.48;;;3.63;;
56039;SDS011;43937;41.366;2.072;2023-09-19T07:17:18;9.35;;;3.67;;
56039;SDS011;43937;41.366;2.072;2023-09-19T07:19:44;12.07;;;3.78;;
56039;SDS011;43937;41.366;2.072;2023-09-19T07:22:09;9.82;;;3.53;;
56039;SDS011;43937;41.366;2.072;2023-09-19T07:24:35;13.48;;;3.50;;
56039;SDS011;43937;41.366;2.072;2023-09-19T07:27:01;12.05;;;3.40;;
56039;SDS011;43937;41.366;2.072;2023-09-19T07:29:27;7.85;;;3.63;;
56039;SDS011;43937;41.366;2.072;2023-09-19T07:31:53;17.55;;;4.35;;
56039;SDS011;43937;41.366;2.072;2023-09-19T07:34:19;12.38;;;4.00;;
56039;SDS011;43937;41.366;2.072;2023-09-19T07:36:46;12.18;;;4.15;;
56039;SDS011;43937;41.366;2.072;2023-09-19T07:39:12;16.83;;;3.85;;
56039;SDS011;43937;41.366;2.072;2023-09-19T07:41:38;20.02;;;4.40;;
56039;SDS011;43937;41.366;2.072;2023-09-19T07:44:04;10.75;;;3.70;;
56039;SDS011;43937;41.366;2.072;2023-09-19T07:46:30;9.05;;;3.22;;
56039;SDS011;43937;41.366;2.072;2023-09-19T07:48:56;12.80;;;3.42;;
56039;SDS011;43937;41.366;2.072;2023-09-19T07:51:22;9.27;;;3.55;;
56039;SDS011;43937;41.366;2.072;2023-09-19T07:53:48;15.18;;;3.83;;
56039;SDS011;43937;41.366;2.072;2023-09-19T07:56:13;14.45;;;3.70;;
56039;SDS011;43937;41.366;2.072;2023-09-19T07:58:40;11.00;;;3.13;;
56039;SDS011;43937;41.366;2.072;2023-09-19T08:01:09;10.43;;;3.22;;
56039;SDS011;43937;41.366;2.072;2023-09-19T08:03:36;8.23;;;3.00;;
56039;SDS011;43937;41.366;2.072;2023-09-19T08:06:09;11.68;;;2.83;;
56039;SDS011;43937;41.366;2.072;2023-09-19T08:08:36;10.48;;;2.75;;
56039;SDS011;43937;41.366;2.072;2023-09-19T08:11:02;12.65;;;2.55;;
56039;SDS011;43937;41.366;2.072;2023-09-19T08:13:36;11.05;;;2.30;;
56039;SDS011;43937;41.366;2.072;2023-09-19T08:16:05;7.32;;;2.70;;
56039;SDS011;43937;41.366;2.072;2023-09-19T08:18:30;9.05;;;2.70;;
56039;SDS011;43937;41.366;2.072;2023-09-19T08:22:06;5.20;;;2.33;;
56039;SDS011;43937;41.366;2.072;2023-09-19T08:24:31;9.90;;;2.75;;
56039;SDS011;43937;41.366;2.072;2023-09-19T08:26:58;12.13;;;3.00;;
56039;SDS011;43937;41.366;2.072;2023-09-19T08:29:24;11.38;;;3.40;;
56039;SDS011;43937;41.366;2.072;2023-09-19T08:31:53;12.25;;;3.13;;
56039;SDS011;43937;41.366;2.072;2023-09-19T08:34:21;10.82;;;3.40;;
56039;SDS011;43937;41.366;2.072;2023-09-19T08:36:46;10.57;;;3.45;;
56039;SDS011;43937;41.366;2.072;2023-09-19T08:39:13;11.63;;;2.80;;
56039;SDS011;43937;41.366;2.072;2023-09-19T08:41:39;14.48;;;3.50;;
56039;SDS011;43937;41.366;2.072;2023-09-19T08:44:05;11.73;;;4.00;;
56039;SDS011;43937;41.366;2.072;2023-09-19T08:46:30;13.80;;;3.75;;
56039;SDS011;43937;41.366;2.072;2023-09-19T08:49:03;9.60;;;3.97;;
56039;SDS011;43937;41.366;2.072;2023-09-19T08:51:33;13.82;;;3.70;;
56039;SDS011;43937;41.366;2.072;2023-09-19T08:54:07;9.23;;;3.22;;
56039;SDS011;43937;41.366;2.072;2023-09-19T08:56:38;10.25;;;3.53;;
56039;SDS011;43937;41.366;2.072;2023-09-19T08:59:06;14.60;;;3.40;;
56039;SDS011;43937;41.366;2.072;2023-09-19T09:01:37;13.88;;;3.30;;
56039;SDS011;43937;41.366;2.072;2023-09-19T09:04:08;11.75;;;3.30;;
56039;SDS011;43937;41.366;2.072;2023-09-19T09:06:34;12.50;;;3.15;;
56039;SDS011;43937;41.366;2.072;2023-09-19T09:09:02;14.52;;;3.60;;
56039;SDS011;43937;41.366;2.072;2023-09-19T09:11:30;10.68;;;3.03;;
56039;SDS011;43937;41.366;2.072;2023-09-19T09:13:58;11.98;;;3.08;;
56039;SDS011;43937;41.366;2.072;2023-09-19T09:16:24;13.15;;;4.05;;
56039;SDS011;43937;41.366;2.072;2023-09-19T09:18:51;11.00;;;2.80;;
56039;SDS011;43937;41.366;2.072;2023-09-19T09:21:17;13.85;;;3.00;;
56039;SDS011;43937;41.366;2.072;2023-09-19T09:23:43;10.68;;;3.20;;
56039;SDS011;43937;41.366;2.072;2023-09-19T09:26:08;14.02;;;2.60;;
56039;SDS011;43937;41.366;2.072;2023-09-19T09:28:34;10.57;;;2.63;;
56039;SDS011;43937;41.366;2.072;2023-09-19T09:31:04;10.50;;;2.58;;
56039;SDS011;43937;41.366;2.072;2023-09-19T09:33:53;18.00;;;2.70;;
56039;SDS011;43937;41.366;2.072;2023-09-19T09:38:14;11.18;;;2.40;;
56039;SDS011;43937;41.366;2.072;2023-09-19T09:40:50;7.85;;;2.13;;
56039;SDS011;43937;41.366;2.072;2023-09-19T09:43:26;12.90;;;2.20;;
56039;SDS011;43937;41.366;2.072;2023-09-19T09:46:06;10.45;;;2.22;;
56039;SDS011;43937;41.366;2.072;2023-09-19T09:51:37;6.40;;;2.28;;
56039;SDS011;43937;41.366;2.072;2023-09-19T09:54:14;9.00;;;1.95;;
56039;SDS011;43937;41.366;2.072;2023-09-19T09:56:57;5.95;;;1.85;;
56039;SDS011;43937;41.366;2.072;2023-09-19T10:02:31;6.68;;;2.10;;
56039;SDS011;43937;41.366;2.072;2023-09-19T10:05:15;5.68;;;2.13;;
56039;SDS011;43937;41.366;2.072;2023-09-19T10:07:45;8.05;;;2.22;;
56039;SDS011;43937;41.366;2.072;2023-09-19T10:12:11;5.65;;;2.00;;
56039;SDS011;43937;41.366;2.072;2023-09-19T10:16:45;8.05;;;1.92;;
56039;SDS011;43937;41.366;2.072;2023-09-19T10:19:20;8.57;;;2.10;;
56039;SDS011;43937;41.366;2.072;2023-09-19T10:21:50;5.32;;;2.05;;
56039;SDS011;43937;41.366;2.072;2023-09-19T10:24:16;5.20;;;1.80;;
56039;SDS011;43937;41.366;2.072;2023-09-19T10:26:44;9.43;;;2.25;;
56039;SDS011;43937;41.366;2.072;2023-09-19T10:29:11;12.77;;;2.47;;
56039;SDS011;43937;41.366;2.072;2023-09-19T10:31:39;5.93;;;2.08;;
56039;SDS011;43937;41.366;2.072;2023-09-19T10:34:12;8.60;;;2.30;;
56039;SDS011;43937;41.366;2.072;2023-09-19T10:36:39;8.82;;;1.75;;
56039;SDS011;43937;41.366;2.072;2023-09-19T10:39:11;10.55;;;2.15;;
56039;SDS011;43937;41.366;2.072;2023-09-19T10:41:43;9.02;;;2.28;;
56039;SDS011;43937;41.366;2.072;2023-09-19T10:44:19;7.82;;;2.00;;
56039;SDS011;43937;41.366;2.072;2023-09-19T10:46:53;7.50;;;2.42;;
56039;SDS011;43937;41.366;2.072;2023-09-19T10:49:20;7.45;;;2.22;;
56039;SDS011;43937;41.366;2.072;2023-09-19T10:51:47;7.65;;;2.38;;
56039;SDS011;43937;41.366;2.072;2023-09-19T10:54:18;6.40;;;1.70;;
56039;SDS011;43937;41.366;2.072;2023-09-19T10:56:48;7.90;;;1.70;;
56039;SDS011;43937;41.366;2.072;2023-09-19T10:59:17;3.85;;;1.30;;
56039;SDS011;43937;41.366;2.072;2023-09-19T11:01:51;6.80;;;2.08;;
56039;SDS011;43937;41.366;2.072;2023-09-19T11:07:28;6.45;;;1.90;;
56039;SDS011;43937;41.366;2.072;2023-09-19T11:09:55;10.50;;;2.13;;
56039;SDS011;43937;41.366;2.072;2023-09-19T11:15:00;7.40;;;1.80;;
56039;SDS011;43937;41.366;2.072;2023-09-19T11:17:33;7.50;;;1.95;;
56039;SDS011;43937;41.366;2.072;2023-09-19T11:30:31;6.40;;;1.85;;
56039;SDS011;43937;41.366;2.072;2023-09-19T11:36:01;6.70;;;1.63;;
56039;SDS011;43937;41.366;2.072;2023-09-19T11:44:31;7.57;;;1.58;;
56039;SDS011;43937;41.366;2.072;2023-09-19T11:46:53;11.88;;;1.83;;
56039;SDS011;43937;41.366;2.072;2023-09-19T11:49:28;5.30;;;1.90;;
56039;SDS011;43937;41.366;2.072;2023-09-19T11:52:04;6.65;;;2.75;;
56039;SDS011;43937;41.366;2.072;2023-09-19T11:54:31;6.30;;;2.03;;
56039;SDS011;43937;41.366;2.072;2023-09-19T11:56:57;4.55;;;1.40;;
56039;SDS011;43937;41.366;2.072;2023-09-19T11:59:27;6.18;;;1.80;;
56039;SDS011;43937;41.366;2.072;2023-09-19T12:01:58;4.38;;;1.60;;
56039;SDS011;43937;41.366;2.072;2023-09-19T12:07:05;5.60;;;1.40;;
56039;SDS011;43937;41.366;2.072;2023-09-19T12:09:37;5.03;;;1.90;;
56039;SDS011;43937;41.366;2.072;2023-09-19T12:12:05;9.20;;;1.58;;
56039;SDS011;43937;41.366;2.072;2023-09-19T12:14:31;5.90;;;2.30;;
56039;SDS011;43937;41.366;2.072;2023-09-19T12:16:58;8.68;;;2.22;;
56039;SDS011;43937;41.366;2.072;2023-09-19T12:19:25;5.80;;;1.85;;
56039;SDS011;43937;41.366;2.072;2023-09-19T12:22:28;9.95;;;1.92;;
56039;SDS011;43937;41.366;2.072;2023-09-19T12:25:08;10.32;;;2.42;;
56039;SDS011;43937;41.366;2.072;2023-09-19T12:27:48;6.33;;;1.33;;
56039;SDS011;43937;41.366;2.072;2023-09-19T12:32:45;9.02;;;2.10;;
56039;SDS011;43937;41.366;2.072;2023-09-19T12:35:26;7.82;;;2.20;;
56039;SDS011;43937;41.366;2.072;2023-09-19T12:37:53;6.78;;;1.50;;
56039;SDS011;43937;41.366;2.072;2023-09-19T12:40:20;10.52;;;2.22;;
56039;SDS011;43937;41.366;2.072;2023-09-19T12:42:58;7.43;;;2.03;;
56039;SDS011;43937;41.366;2.072;2023-09-19T12:45:24;5.60;;;1.45;;
56039;SDS011;43937;41.366;2.072;2023-09-19T12:53:31;6.53;;;1.88;;
56039;SDS011;43937;41.366;2.072;2023-09-19T12:55:59;5.80;;;1.92;;
56039;SDS011;43937;41.366;2.072;2023-09-19T12:58:25;5.03;;;1.55;;
56039;SDS011;43937;41.366;2.072;2023-09-19T13:00:50;5.25;;;1.90;;
56039;SDS011;43937;41.366;2.072;2023-09-19T13:05:53;7.70;;;1.65;;
56039;SDS011;43937;41.366;2.072;2023-09-19T13:08:30;7.47;;;2.20;;
56039;SDS011;43937;41.366;2.072;2023-09-19T13:13:29;7.50;;;2.10;;
56039;SDS011;43937;41.366;2.072;2023-09-19T13:15:55;4.07;;;1.75;;
56039;SDS011;43937;41.366;2.072;2023-09-19T13:18:22;14.10;;;2.17;;
56039;SDS011;43937;41.366;2.072;2023-09-19T13:23:49;7.07;;;1.60;;
56039;SDS011;43937;41.366;2.072;2023-09-19T13:26:19;4.88;;;1.45;;
56039;SDS011;43937;41.366;2.072;2023-09-19T13:28:45;6.40;;;1.70;;
56039;SDS011;43937;41.366;2.072;2023-09-19T13:31:13;6.55;;;2.05;;
56039;SDS011;43937;41.366;2.072;2023-09-19T13:33:45;7.10;;;1.75;;
56039;SDS011;43937;41.366;2.072;2023-09-19T13:36:12;5.85;;;1.50;;
56039;SDS011;43937;41.366;2.072;2023-09-19T13:38:42;7.15;;;2.10;;
56039;SDS011;43937;41.366;2.072;2023-09-19T13:41:13;7.30;;;2.00;;
56039;SDS011;43937;41.366;2.072;2023-09-19T13:43:39;7.95;;;2.05;;
56039;SDS011;43937;41.366;2.072;2023-09-19T13:46:05;8.43;;;2.10;;
56039;SDS011;43937;41.366;2.072;2023-09-19T13:48:32;8.35;;;1.77;;
56039;SDS011;43937;41.366;2.072;2023-09-19T13:51:01;7.22;;;2.08;;
56039;SDS011;43937;41.366;2.072;2023-09-19T13:53:28;12.18;;;2.28;;
56039;SDS011;43937;41.366;2.072;2023-09-19T13:55:54;11.43;;;1.95;;
56039;SDS011;43937;41.366;2.072;2023-09-19T13:58:19;5.85;;;1.63;;
56039;SDS011;43937;41.366;2.072;2023-09-19T14:00:46;6.25;;;1.83;;
56039;SDS011;43937;41.366;2.072;2023-09-19T14:03:12;9.25;;;2.10;;
56039;SDS011;43937;41.366;2.072;2023-09-19T14:05:37;8.30;;;1.77;;
56039;SDS011;43937;41.366;2.072;2023-09-19T14:08:03;10.95;;;1.80;;
56039;SDS011;43937;41.366;2.072;2023-09-19T14:10:28;10.07;;;2.00;;
56039;SDS011;43937;41.366;2.072;2023-09-19T14:12:56;6.40;;;1.60;;
56039;SDS011;43937;41.366;2.072;2023-09-19T14:15:23;10.35;;;1.90;;
56039;SDS011;43937;41.366;2.072;2023-09-19T14:17:58;5.25;;;1.52;;
56039;SDS011;43937;41.366;2.072;2023-09-19T14:20:25;7.85;;;2.00;;
56039;SDS011;43937;41.366;2.072;2023-09-19T14:22:52;5.78;;;2.10;;
56039;SDS011;43937;41.366;2.072;2023-09-19T14:25:18;9.18;;;1.90;;
56039;SDS011;43937;41.366;2.072;2023-09-19T14:27:44;7.82;;;1.92;;
56039;SDS011;43937;41.366;2.072;2023-09-19T14:30:09;7.13;;;1.67;;
56039;SDS011;43937;41.366;2.072;2023-09-19T14:32:35;10.40;;;1.70;;
56039;SDS011;43937;41.366;2.072;2023-09-19T14:35:01;9.55;;;2.05;;
56039;SDS011;43937;41.366;2.072;2023-09-19T14:37:27;9.48;;;2.20;;
56039;SDS011;43937;41.366;2.072;2023-09-19T14:39:53;9.27;;;2.00;;
56039;SDS011;43937;41.366;2.072;2023-09-19T14:42:19;8.13;;;2.25;;
56039;SDS011;43937;41.366;2.072;2023-09-19T14:44:44;6.20;;;1.63;;
56039;SDS011;43937;41.366;2.072;2023-09-19T14:47:10;8.13;;;1.92;;
56039;SDS011;43937;41.366;2.072;2023-09-19T14:49:38;5.05;;;1.75;;
56039;SDS011;43937;41.366;2.072;2023-09-19T14:52:08;8.02;;;2.22;;
56039;SDS011;43937;41.366;2.072;2023-09-19T14:54:35;10.25;;;2.15;;
56039;SDS011;43937;41.366;2.072;2023-09-19T14:57:03;3.20;;;1.45;;
56039;SDS011;43937;41.366;2.072;2023-09-19T14:59:32;8.23;;;2.10;;
56039;SDS011;43937;41.366;2.072;2023-09-19T15:01:59;7.82;;;1.75;;
56039;SDS011;43937;41.366;2.072;2023-09-19T15:04:24;5.07;;;2.00;;
56039;SDS011;43937;41.366;2.072;2023-09-19T15:06:50;8.43;;;1.75;;
56039;SDS011;43937;41.366;2.072;2023-09-19T15:09:20;6.57;;;1.75;;
56039;SDS011;43937;41.366;2.072;2023-09-19T15:14:17;12.15;;;3.40;;
56039;SDS011;43937;41.366;2.072;2023-09-19T15:16:43;7.07;;;2.40;;
56039;SDS011;43937;41.366;2.072;2023-09-19T15:19:09;9.65;;;2.40;;
56039;SDS011;43937;41.366;2.072;2023-09-19T15:21:35;7.18;;;2.00;;
56039;SDS011;43937;41.366;2.072;2023-09-19T15:24:02;9.48;;;1.80;;
56039;SDS011;43937;41.366;2.072;2023-09-19T15:26:28;6.45;;;1.35;;
56039;SDS011;43937;41.366;2.072;2023-09-19T15:28:55;9.13;;;1.60;;
56039;SDS011;43937;41.366;2.072;2023-09-19T15:31:21;9.07;;;1.65;;
56039;SDS011;43937;41.366;2.072;2023-09-19T15:33:47;7.55;;;2.10;;
56039;SDS011;43937;41.366;2.072;2023-09-19T15:36:13;12.43;;;3.17;;
56039;SDS011;43937;41.366;2.072;2023-09-19T15:41:25;6.85;;;2.15;;
56039;SDS011;43937;41.366;2.072;2023-09-19T15:43:52;6.90;;;1.80;;
56039;SDS011;43937;41.366;2.072;2023-09-19T15:46:18;14.10;;;2.50;;
56039;SDS011;43937;41.366;2.072;2023-09-19T15:48:45;10.85;;;2.22;;
56039;SDS011;43937;41.366;2.072;2023-09-19T15:51:11;13.07;;;2.35;;
56039;SDS011;43937;41.366;2.072;2023-09-19T15:53:46;11.23;;;2.08;;
56039;SDS011;43937;41.366;2.072;2023-09-19T15:56:14;12.82;;;2.28;;
56039;SDS011;43937;41.366;2.072;2023-09-19T15:58:43;9.07;;;2.75;;
56039;SDS011;43937;41.366;2.072;2023-09-19T16:01:09;13.73;;;2.10;;
56039;SDS011;43937;41.366;2.072;2023-09-19T16:03:36;10.52;;;3.20;;
56039;SDS011;43937;41.366;2.072;2023-09-19T16:06:16;12.15;;;2.53;;
56039;SDS011;43937;41.366;2.072;2023-09-19T16:08:43;11.55;;;2.47;;
56039;SDS011;43937;41.366;2.072;2023-09-19T16:11:11;10.38;;;2.45;;
56039;SDS011;43937;41.366;2.072;2023-09-19T16:13:37;6.68;;;2.13;;
56039;SDS011;43937;41.366;2.072;2023-09-19T16:16:04;6.80;;;1.95;;